sensor_id;sensor_type;location;lat;lon;timestamp;P1;durP1;ratioP1;P2;durP2;ratioP2
1839;SDS011;920;48.944;9.148;2023-06-14T00:00:39;4.90;;;4.40;;
1839;SDS011;920;48.944;9.148;2023-06-14T00:03:09;5.33;;;4.10;;
1839;SDS011;920;48.944;9.148;2023-06-14T00:05:37;4.97;;;4.47;;
1839;SDS011;920;48.944;9.148;2023-06-14T00:08:08;4.93;;;4.43;;
1839;SDS011;920;48.944;9.148;2023-06-14T00:10:35;5.90;;;4.47;;
1839;SDS011;920;48.944;9.148;2023-06-14T00:13:02;6.90;;;4.90;;
1839;SDS011;920;48.944;9.148;2023-06-14T00:15:29;7.93;;;5.30;;
1839;SDS011;920;48.944;9.148;2023-06-14T00:17:56;6.73;;;5.40;;
1839;SDS011;920;48.944;9.148;2023-06-14T00:20:27;6.83;;;4.93;;
1839;SDS011;920;48.944;9.148;2023-06-14T00:22:53;4.83;;;4.33;;
1839;SDS011;920;48.944;9.148;2023-06-14T00:25:21;6.60;;;5.13;;
1839;SDS011;920;48.944;9.148;2023-06-14T00:27:48;6.60;;;5.33;;
1839;SDS011;920;48.944;9.148;2023-06-14T00:30:15;6.07;;;5.40;;
1839;SDS011;920;48.944;9.148;2023-06-14T00:32:42;5.87;;;5.27;;
1839;SDS011;920;48.944;9.148;2023-06-14T00:35:10;6.10;;;5.37;;
1839;SDS011;920;48.944;9.148;2023-06-14T00:37:38;5.13;;;4.63;;
1839;SDS011;920;48.944;9.148;2023-06-14T00:40:07;5.40;;;4.90;;
1839;SDS011;920;48.944;9.148;2023-06-14T00:42:34;4.70;;;4.30;;
1839;SDS011;920;48.944;9.148;2023-06-14T00:45:01;4.97;;;4.47;;
1839;SDS011;920;48.944;9.148;2023-06-14T00:47:28;5.27;;;4.77;;
1839;SDS011;920;48.944;9.148;2023-06-14T00:49:55;7.97;;;5.80;;
1839;SDS011;920;48.944;9.148;2023-06-14T00:52:22;6.00;;;4.97;;
1839;SDS011;920;48.944;9.148;2023-06-14T00:54:51;5.60;;;5.10;;
1839;SDS011;920;48.944;9.148;2023-06-14T00:57:19;6.30;;;4.87;;
1839;SDS011;920;48.944;9.148;2023-06-14T00:59:47;7.00;;;4.77;;
1839;SDS011;920;48.944;9.148;2023-06-14T01:02:15;6.67;;;4.83;;
1839;SDS011;920;48.944;9.148;2023-06-14T01:04:43;5.53;;;4.77;;
1839;SDS011;920;48.944;9.148;2023-06-14T01:07:15;5.33;;;4.57;;
1839;SDS011;920;48.944;9.148;2023-06-14T01:09:48;6.20;;;5.20;;
1839;SDS011;920;48.944;9.148;2023-06-14T01:12:27;5.20;;;4.70;;
1839;SDS011;920;48.944;9.148;2023-06-14T01:14:57;6.40;;;5.27;;
1839;SDS011;920;48.944;9.148;2023-06-14T01:17:26;5.13;;;4.63;;
1839;SDS011;920;48.944;9.148;2023-06-14T01:19:57;5.57;;;5.00;;
1839;SDS011;920;48.944;9.148;2023-06-14T01:22:25;5.40;;;4.90;;
1839;SDS011;920;48.944;9.148;2023-06-14T01:24:55;6.13;;;5.00;;
1839;SDS011;920;48.944;9.148;2023-06-14T01:27:23;5.70;;;5.10;;
1839;SDS011;920;48.944;9.148;2023-06-14T01:29:53;7.00;;;5.37;;
1839;SDS011;920;48.944;9.148;2023-06-14T01:32:21;6.57;;;5.20;;
1839;SDS011;920;48.944;9.148;2023-06-14T01:34:49;6.00;;;4.60;;
1839;SDS011;920;48.944;9.148;2023-06-14T01:37:16;5.97;;;5.23;;
1839;SDS011;920;48.944;9.148;2023-06-14T01:39:43;5.20;;;4.70;;
1839;SDS011;920;48.944;9.148;2023-06-14T01:42:11;5.70;;;5.10;;
1839;SDS011;920;48.944;9.148;2023-06-14T01:44:40;5.50;;;4.60;;
1839;SDS011;920;48.944;9.148;2023-06-14T01:47:08;6.60;;;5.57;;
1839;SDS011;920;48.944;9.148;2023-06-14T01:49:35;5.57;;;4.97;;
1839;SDS011;920;48.944;9.148;2023-06-14T01:52:02;5.87;;;5.27;;
1839;SDS011;920;48.944;9.148;2023-06-14T01:54:29;6.63;;;5.47;;
1839;SDS011;920;48.944;9.148;2023-06-14T01:56:56;6.27;;;5.57;;
1839;SDS011;920;48.944;9.148;2023-06-14T01:59:24;6.03;;;4.97;;
1839;SDS011;920;48.944;9.148;2023-06-14T02:01:52;5.67;;;5.07;;
1839;SDS011;920;48.944;9.148;2023-06-14T02:04:18;6.00;;;5.30;;
1839;SDS011;920;48.944;9.148;2023-06-14T02:06:46;5.97;;;5.37;;
1839;SDS011;920;48.944;9.148;2023-06-14T02:09:13;5.33;;;4.83;;
1839;SDS011;920;48.944;9.148;2023-06-14T02:11:40;8.13;;;5.63;;
1839;SDS011;920;48.944;9.148;2023-06-14T02:14:07;6.10;;;5.40;;
1839;SDS011;920;48.944;9.148;2023-06-14T02:16:37;6.80;;;6.10;;
1839;SDS011;920;48.944;9.148;2023-06-14T02:19:05;6.70;;;5.30;;
1839;SDS011;920;48.944;9.148;2023-06-14T02:21:31;5.40;;;4.90;;
1839;SDS011;920;48.944;9.148;2023-06-14T02:23:58;6.93;;;5.43;;
1839;SDS011;920;48.944;9.148;2023-06-14T02:26:27;5.20;;;4.70;;
1839;SDS011;920;48.944;9.148;2023-06-14T02:28:54;6.63;;;5.30;;
1839;SDS011;920;48.944;9.148;2023-06-14T02:31:20;6.77;;;5.10;;
1839;SDS011;920;48.944;9.148;2023-06-14T02:33:49;6.10;;;4.80;;
1839;SDS011;920;48.944;9.148;2023-06-14T02:36:16;6.20;;;5.13;;
1839;SDS011;920;48.944;9.148;2023-06-14T02:38:42;6.10;;;5.27;;
1839;SDS011;920;48.944;9.148;2023-06-14T02:41:10;6.63;;;5.93;;
1839;SDS011;920;48.944;9.148;2023-06-14T02:43:37;5.60;;;5.00;;
1839;SDS011;920;48.944;9.148;2023-06-14T02:46:05;6.60;;;5.20;;
1839;SDS011;920;48.944;9.148;2023-06-14T02:48:32;5.93;;;5.17;;
1839;SDS011;920;48.944;9.148;2023-06-14T02:51:01;6.20;;;5.60;;
1839;SDS011;920;48.944;9.148;2023-06-14T02:53:28;7.53;;;5.60;;
1839;SDS011;920;48.944;9.148;2023-06-14T02:55:55;6.40;;;5.67;;
1839;SDS011;920;48.944;9.148;2023-06-14T02:58:22;6.10;;;5.20;;
1839;SDS011;920;48.944;9.148;2023-06-14T03:00:50;5.67;;;5.07;;
1839;SDS011;920;48.944;9.148;2023-06-14T03:03:17;5.90;;;5.20;;
1839;SDS011;920;48.944;9.148;2023-06-14T03:05:51;5.83;;;5.23;;
1839;SDS011;920;48.944;9.148;2023-06-14T03:08:24;5.10;;;4.60;;
1839;SDS011;920;48.944;9.148;2023-06-14T03:10:55;5.90;;;5.30;;
1839;SDS011;920;48.944;9.148;2023-06-14T03:13:23;4.77;;;4.37;;
1839;SDS011;920;48.944;9.148;2023-06-14T03:15:52;5.63;;;5.10;;
1839;SDS011;920;48.944;9.148;2023-06-14T03:18:22;6.10;;;5.27;;
1839;SDS011;920;48.944;9.148;2023-06-14T03:20:50;5.03;;;4.53;;
1839;SDS011;920;48.944;9.148;2023-06-14T03:23:17;5.70;;;5.00;;
1839;SDS011;920;48.944;9.148;2023-06-14T03:25:46;5.87;;;4.90;;
1839;SDS011;920;48.944;9.148;2023-06-14T03:28:12;8.13;;;4.87;;
1839;SDS011;920;48.944;9.148;2023-06-14T03:30:40;5.50;;;5.00;;
1839;SDS011;920;48.944;9.148;2023-06-14T03:33:06;6.00;;;5.17;;
1839;SDS011;920;48.944;9.148;2023-06-14T03:35:37;6.67;;;4.87;;
1839;SDS011;920;48.944;9.148;2023-06-14T03:38:03;6.20;;;5.60;;
1839;SDS011;920;48.944;9.148;2023-06-14T03:40:31;6.03;;;5.43;;
1839;SDS011;920;48.944;9.148;2023-06-14T03:43:03;5.63;;;4.70;;
1839;SDS011;920;48.944;9.148;2023-06-14T03:45:31;6.10;;;5.27;;
1839;SDS011;920;48.944;9.148;2023-06-14T03:47:59;5.57;;;5.07;;
1839;SDS011;920;48.944;9.148;2023-06-14T03:50:27;5.40;;;4.90;;
1839;SDS011;920;48.944;9.148;2023-06-14T03:52:54;5.77;;;4.90;;
1839;SDS011;920;48.944;9.148;2023-06-14T03:55:22;5.73;;;5.10;;
1839;SDS011;920;48.944;9.148;2023-06-14T03:57:50;6.43;;;5.60;;
1839;SDS011;920;48.944;9.148;2023-06-14T04:00:19;6.53;;;5.93;;
1839;SDS011;920;48.944;9.148;2023-06-14T04:02:46;6.87;;;6.07;;
1839;SDS011;920;48.944;9.148;2023-06-14T04:05:13;7.47;;;6.13;;
1839;SDS011;920;48.944;9.148;2023-06-14T04:07:45;6.57;;;5.87;;
1839;SDS011;920;48.944;9.148;2023-06-14T04:10:14;7.63;;;5.93;;
1839;SDS011;920;48.944;9.148;2023-06-14T04:12:41;6.50;;;5.83;;
1839;SDS011;920;48.944;9.148;2023-06-14T04:15:09;6.27;;;5.60;;
1839;SDS011;920;48.944;9.148;2023-06-14T04:17:37;6.40;;;5.37;;
1839;SDS011;920;48.944;9.148;2023-06-14T04:20:06;8.70;;;5.40;;
1839;SDS011;920;48.944;9.148;2023-06-14T04:22:35;6.57;;;5.80;;
1839;SDS011;920;48.944;9.148;2023-06-14T04:25:03;6.10;;;5.07;;
1839;SDS011;920;48.944;9.148;2023-06-14T04:27:32;6.23;;;5.63;;
1839;SDS011;920;48.944;9.148;2023-06-14T04:30:01;7.50;;;5.93;;
1839;SDS011;920;48.944;9.148;2023-06-14T04:32:37;5.93;;;5.33;;
1839;SDS011;920;48.944;9.148;2023-06-14T04:35:06;6.53;;;5.93;;
1839;SDS011;920;48.944;9.148;2023-06-14T04:37:35;6.13;;;5.57;;
1839;SDS011;920;48.944;9.148;2023-06-14T04:40:06;6.40;;;5.77;;
1839;SDS011;920;48.944;9.148;2023-06-14T04:42:36;6.90;;;6.20;;
1839;SDS011;920;48.944;9.148;2023-06-14T04:45:05;6.53;;;5.90;;
1839;SDS011;920;48.944;9.148;2023-06-14T04:47:33;6.93;;;6.27;;
1839;SDS011;920;48.944;9.148;2023-06-14T04:50:02;8.13;;;6.43;;
1839;SDS011;920;48.944;9.148;2023-06-14T04:52:30;8.20;;;6.87;;
1839;SDS011;920;48.944;9.148;2023-06-14T04:54:58;7.30;;;6.50;;
1839;SDS011;920;48.944;9.148;2023-06-14T04:57:25;7.63;;;5.93;;
1839;SDS011;920;48.944;9.148;2023-06-14T04:59:56;7.20;;;5.97;;
1839;SDS011;920;48.944;9.148;2023-06-14T05:02:27;7.40;;;6.00;;
1839;SDS011;920;48.944;9.148;2023-06-14T05:04:56;6.50;;;5.70;;
1839;SDS011;920;48.944;9.148;2023-06-14T05:07:24;7.40;;;6.30;;
1839;SDS011;920;48.944;9.148;2023-06-14T05:09:51;6.90;;;6.20;;
1839;SDS011;920;48.944;9.148;2023-06-14T05:12:18;6.30;;;5.70;;
1839;SDS011;920;48.944;9.148;2023-06-14T05:14:45;7.47;;;6.63;;
1839;SDS011;920;48.944;9.148;2023-06-14T05:17:14;7.00;;;6.30;;
1839;SDS011;920;48.944;9.148;2023-06-14T05:19:42;7.73;;;6.53;;
1839;SDS011;920;48.944;9.148;2023-06-14T05:22:09;7.83;;;6.63;;
1839;SDS011;920;48.944;9.148;2023-06-14T05:24:37;7.13;;;6.43;;
1839;SDS011;920;48.944;9.148;2023-06-14T05:27:04;6.17;;;5.57;;
1839;SDS011;920;48.944;9.148;2023-06-14T05:29:32;6.20;;;5.60;;
1839;SDS011;920;48.944;9.148;2023-06-14T05:31:58;7.47;;;6.10;;
1839;SDS011;920;48.944;9.148;2023-06-14T05:34:26;7.83;;;6.83;;
1839;SDS011;920;48.944;9.148;2023-06-14T05:36:52;6.87;;;6.27;;
1839;SDS011;920;48.944;9.148;2023-06-14T05:39:19;7.03;;;6.30;;
1839;SDS011;920;48.944;9.148;2023-06-14T05:41:47;8.90;;;6.50;;
1839;SDS011;920;48.944;9.148;2023-06-14T05:44:14;5.70;;;5.20;;
1839;SDS011;920;48.944;9.148;2023-06-14T05:46:41;6.87;;;5.20;;
1839;SDS011;920;48.944;9.148;2023-06-14T05:49:08;6.20;;;5.60;;
1839;SDS011;920;48.944;9.148;2023-06-14T05:51:34;6.60;;;5.90;;
1839;SDS011;920;48.944;9.148;2023-06-14T05:54:01;6.83;;;6.23;;
1839;SDS011;920;48.944;9.148;2023-06-14T05:56:28;8.73;;;6.20;;
1839;SDS011;920;48.944;9.148;2023-06-14T05:58:56;7.30;;;6.37;;
1839;SDS011;920;48.944;9.148;2023-06-14T06:01:22;7.17;;;6.43;;
1839;SDS011;920;48.944;9.148;2023-06-14T06:03:50;10.83;;;6.83;;
1839;SDS011;920;48.944;9.148;2023-06-14T06:06:17;9.03;;;5.93;;
1839;SDS011;920;48.944;9.148;2023-06-14T06:08:44;8.23;;;6.40;;
1839;SDS011;920;48.944;9.148;2023-06-14T06:11:11;6.80;;;6.20;;
1839;SDS011;920;48.944;9.148;2023-06-14T06:13:38;9.23;;;7.10;;
1839;SDS011;920;48.944;9.148;2023-06-14T06:16:07;7.27;;;6.57;;
1839;SDS011;920;48.944;9.148;2023-06-14T06:18:33;7.83;;;7.03;;
1839;SDS011;920;48.944;9.148;2023-06-14T06:21:01;7.40;;;6.70;;
1839;SDS011;920;48.944;9.148;2023-06-14T06:23:29;7.20;;;5.80;;
1839;SDS011;920;48.944;9.148;2023-06-14T06:25:56;7.03;;;6.43;;
1839;SDS011;920;48.944;9.148;2023-06-14T06:28:22;7.20;;;6.50;;
1839;SDS011;920;48.944;9.148;2023-06-14T06:30:49;7.87;;;7.07;;
1839;SDS011;920;48.944;9.148;2023-06-14T06:33:18;7.27;;;6.57;;
1839;SDS011;920;48.944;9.148;2023-06-14T06:35:44;7.43;;;6.53;;
1839;SDS011;920;48.944;9.148;2023-06-14T06:38:11;8.90;;;6.50;;
1839;SDS011;920;48.944;9.148;2023-06-14T06:40:38;6.87;;;6.27;;
1839;SDS011;920;48.944;9.148;2023-06-14T06:43:04;7.73;;;6.20;;
1839;SDS011;920;48.944;9.148;2023-06-14T06:45:39;6.67;;;5.97;;
1839;SDS011;920;48.944;9.148;2023-06-14T06:48:06;6.57;;;5.90;;
1839;SDS011;920;48.944;9.148;2023-06-14T06:50:36;6.93;;;6.23;;
1839;SDS011;920;48.944;9.148;2023-06-14T06:53:03;7.20;;;5.97;;
1839;SDS011;920;48.944;9.148;2023-06-14T06:55:30;7.83;;;5.70;;
1839;SDS011;920;48.944;9.148;2023-06-14T06:57:57;7.40;;;6.80;;
1839;SDS011;920;48.944;9.148;2023-06-14T07:00:25;6.77;;;6.20;;
1839;SDS011;920;48.944;9.148;2023-06-14T07:02:51;6.47;;;5.87;;
1839;SDS011;920;48.944;9.148;2023-06-14T07:05:20;6.97;;;6.33;;
1839;SDS011;920;48.944;9.148;2023-06-14T07:07:48;7.43;;;6.73;;
1839;SDS011;920;48.944;9.148;2023-06-14T07:10:15;6.80;;;5.67;;
1839;SDS011;920;48.944;9.148;2023-06-14T07:12:41;6.40;;;5.80;;
1839;SDS011;920;48.944;9.148;2023-06-14T07:15:08;5.70;;;5.20;;
1839;SDS011;920;48.944;9.148;2023-06-14T07:17:36;5.83;;;5.23;;
1839;SDS011;920;48.944;9.148;2023-06-14T07:20:03;6.30;;;5.70;;
1839;SDS011;920;48.944;9.148;2023-06-14T07:22:37;7.13;;;6.03;;
1839;SDS011;920;48.944;9.148;2023-06-14T07:25:06;6.53;;;5.93;;
1839;SDS011;920;48.944;9.148;2023-06-14T07:27:33;5.50;;;5.00;;
1839;SDS011;920;48.944;9.148;2023-06-14T07:30:00;5.97;;;5.47;;
1839;SDS011;920;48.944;9.148;2023-06-14T07:32:27;6.83;;;5.90;;
1839;SDS011;920;48.944;9.148;2023-06-14T07:34:53;6.70;;;5.90;;
1839;SDS011;920;48.944;9.148;2023-06-14T07:37:20;6.67;;;5.77;;
1839;SDS011;920;48.944;9.148;2023-06-14T07:39:46;6.07;;;5.50;;
1839;SDS011;920;48.944;9.148;2023-06-14T07:42:15;5.93;;;5.40;;
1839;SDS011;920;48.944;9.148;2023-06-14T07:44:42;5.83;;;5.33;;
1839;SDS011;920;48.944;9.148;2023-06-14T07:47:08;6.90;;;6.20;;
1839;SDS011;920;48.944;9.148;2023-06-14T07:49:35;5.77;;;5.17;;
1839;SDS011;920;48.944;9.148;2023-06-14T07:52:02;10.10;;;5.97;;
1839;SDS011;920;48.944;9.148;2023-06-14T07:54:30;6.40;;;5.63;;
1839;SDS011;920;48.944;9.148;2023-06-14T07:56:57;5.90;;;5.40;;
1839;SDS011;920;48.944;9.148;2023-06-14T07:59:27;6.07;;;5.53;;
1839;SDS011;920;48.944;9.148;2023-06-14T08:01:53;6.67;;;6.07;;
1839;SDS011;920;48.944;9.148;2023-06-14T08:04:20;8.13;;;5.67;;
1839;SDS011;920;48.944;9.148;2023-06-14T08:06:47;5.80;;;5.20;;
1839;SDS011;920;48.944;9.148;2023-06-14T08:09:13;6.43;;;5.77;;
1839;SDS011;920;48.944;9.148;2023-06-14T08:11:40;5.80;;;5.30;;
1839;SDS011;920;48.944;9.148;2023-06-14T08:14:07;6.20;;;5.60;;
1839;SDS011;920;48.944;9.148;2023-06-14T08:16:35;6.10;;;5.50;;
1839;SDS011;920;48.944;9.148;2023-06-14T08:19:02;6.67;;;5.70;;
1839;SDS011;920;48.944;9.148;2023-06-14T08:21:29;5.50;;;5.07;;
1839;SDS011;920;48.944;9.148;2023-06-14T08:23:58;5.80;;;5.20;;
1839;SDS011;920;48.944;9.148;2023-06-14T08:26:25;5.67;;;5.00;;
1839;SDS011;920;48.944;9.148;2023-06-14T08:28:54;5.67;;;5.13;;
1839;SDS011;920;48.944;9.148;2023-06-14T08:31:20;5.73;;;5.13;;
1839;SDS011;920;48.944;9.148;2023-06-14T08:33:49;5.60;;;5.10;;
1839;SDS011;920;48.944;9.148;2023-06-14T08:36:15;5.87;;;5.27;;
1839;SDS011;920;48.944;9.148;2023-06-14T08:38:42;6.10;;;5.30;;
1839;SDS011;920;48.944;9.148;2023-06-14T08:41:09;5.90;;;5.33;;
1839;SDS011;920;48.944;9.148;2023-06-14T08:43:38;6.63;;;4.57;;
1839;SDS011;920;48.944;9.148;2023-06-14T08:46:05;6.20;;;5.60;;
1839;SDS011;920;48.944;9.148;2023-06-14T08:48:33;5.97;;;5.37;;
1839;SDS011;920;48.944;9.148;2023-06-14T08:51:02;5.23;;;4.73;;
1839;SDS011;920;48.944;9.148;2023-06-14T08:53:31;5.73;;;5.10;;
1839;SDS011;920;48.944;9.148;2023-06-14T08:55:59;5.57;;;5.07;;
1839;SDS011;920;48.944;9.148;2023-06-14T08:58:27;5.50;;;5.00;;
1839;SDS011;920;48.944;9.148;2023-06-14T09:00:54;5.20;;;4.70;;
1839;SDS011;920;48.944;9.148;2023-06-14T09:03:22;6.60;;;4.83;;
1839;SDS011;920;48.944;9.148;2023-06-14T09:05:55;6.40;;;4.87;;
1839;SDS011;920;48.944;9.148;2023-06-14T09:08:25;6.10;;;5.50;;
1839;SDS011;920;48.944;9.148;2023-06-14T09:10:52;5.97;;;5.10;;
1839;SDS011;920;48.944;9.148;2023-06-14T09:13:19;5.90;;;5.27;;
1839;SDS011;920;48.944;9.148;2023-06-14T09:15:46;5.40;;;4.90;;
1839;SDS011;920;48.944;9.148;2023-06-14T09:18:12;23.50;;;5.73;;
1839;SDS011;920;48.944;9.148;2023-06-14T09:20:39;5.63;;;5.03;;
1839;SDS011;920;48.944;9.148;2023-06-14T09:23:07;6.30;;;5.30;;
1839;SDS011;920;48.944;9.148;2023-06-14T09:25:42;5.53;;;4.93;;
1839;SDS011;920;48.944;9.148;2023-06-14T09:28:09;5.43;;;4.53;;
1839;SDS011;920;48.944;9.148;2023-06-14T09:30:36;6.07;;;4.77;;
1839;SDS011;920;48.944;9.148;2023-06-14T09:33:03;6.33;;;5.10;;
1839;SDS011;920;48.944;9.148;2023-06-14T09:35:30;5.63;;;5.03;;
1839;SDS011;920;48.944;9.148;2023-06-14T09:37:57;6.60;;;5.23;;
1839;SDS011;920;48.944;9.148;2023-06-14T09:40:24;5.10;;;4.67;;
1839;SDS011;920;48.944;9.148;2023-06-14T09:42:53;5.90;;;5.30;;
1839;SDS011;920;48.944;9.148;2023-06-14T09:45:20;5.90;;;5.30;;
1839;SDS011;920;48.944;9.148;2023-06-14T09:47:48;5.30;;;4.80;;
1839;SDS011;920;48.944;9.148;2023-06-14T09:50:15;6.80;;;4.53;;
1839;SDS011;920;48.944;9.148;2023-06-14T09:52:42;5.90;;;4.80;;
1839;SDS011;920;48.944;9.148;2023-06-14T09:55:12;6.10;;;4.20;;
1839;SDS011;920;48.944;9.148;2023-06-14T09:57:40;5.17;;;4.20;;
1839;SDS011;920;48.944;9.148;2023-06-14T10:00:09;4.80;;;4.30;;
1839;SDS011;920;48.944;9.148;2023-06-14T10:02:38;5.57;;;4.53;;
1839;SDS011;920;48.944;9.148;2023-06-14T10:05:08;5.90;;;4.70;;
1839;SDS011;920;48.944;9.148;2023-06-14T10:07:38;4.97;;;4.20;;
1839;SDS011;920;48.944;9.148;2023-06-14T10:10:05;14.97;;;4.10;;
1839;SDS011;920;48.944;9.148;2023-06-14T10:12:33;4.27;;;3.87;;
1839;SDS011;920;48.944;9.148;2023-06-14T10:15:00;4.77;;;4.20;;
1839;SDS011;920;48.944;9.148;2023-06-14T10:17:32;5.33;;;4.50;;
1839;SDS011;920;48.944;9.148;2023-06-14T10:20:13;6.03;;;4.17;;
1839;SDS011;920;48.944;9.148;2023-06-14T10:22:47;5.90;;;4.30;;
1839;SDS011;920;48.944;9.148;2023-06-14T10:25:25;4.60;;;4.20;;
1839;SDS011;920;48.944;9.148;2023-06-14T10:28:02;4.67;;;3.83;;
1839;SDS011;920;48.944;9.148;2023-06-14T10:30:30;6.40;;;4.30;;
1839;SDS011;920;48.944;9.148;2023-06-14T10:33:04;5.97;;;4.10;;
1839;SDS011;920;48.944;9.148;2023-06-14T10:35:32;5.20;;;3.83;;
1839;SDS011;920;48.944;9.148;2023-06-14T10:38:08;5.93;;;4.10;;
1839;SDS011;920;48.944;9.148;2023-06-14T10:40:36;4.27;;;3.87;;
1839;SDS011;920;48.944;9.148;2023-06-14T10:48:43;4.50;;;4.10;;
1839;SDS011;920;48.944;9.148;2023-06-14T10:51:16;4.50;;;4.10;;
1839;SDS011;920;48.944;9.148;2023-06-14T10:53:46;4.77;;;4.03;;
1839;SDS011;920;48.944;9.148;2023-06-14T10:56:28;4.27;;;3.87;;
1839;SDS011;920;48.944;9.148;2023-06-14T10:58:56;5.03;;;4.53;;
1839;SDS011;920;48.944;9.148;2023-06-14T11:01:28;4.93;;;4.10;;
1839;SDS011;920;48.944;9.148;2023-06-14T11:04:05;7.20;;;4.03;;
1839;SDS011;920;48.944;9.148;2023-06-14T11:06:36;4.73;;;4.03;;
1839;SDS011;920;48.944;9.148;2023-06-14T11:09:18;5.87;;;3.97;;
1839;SDS011;920;48.944;9.148;2023-06-14T11:11:55;6.70;;;3.97;;
1839;SDS011;920;48.944;9.148;2023-06-14T11:14:22;4.73;;;3.93;;
1839;SDS011;920;48.944;9.148;2023-06-14T11:16:49;4.50;;;4.10;;
1839;SDS011;920;48.944;9.148;2023-06-14T11:19:17;4.30;;;3.83;;
1839;SDS011;920;48.944;9.148;2023-06-14T11:21:47;5.43;;;4.10;;
1839;SDS011;920;48.944;9.148;2023-06-14T11:24:14;4.83;;;4.40;;
1839;SDS011;920;48.944;9.148;2023-06-14T11:26:41;5.53;;;4.33;;
1839;SDS011;920;48.944;9.148;2023-06-14T11:29:07;6.70;;;4.20;;
1839;SDS011;920;48.944;9.148;2023-06-14T11:31:34;4.80;;;4.30;;
1839;SDS011;920;48.944;9.148;2023-06-14T11:34:01;4.70;;;4.30;;
1839;SDS011;920;48.944;9.148;2023-06-14T11:36:30;4.50;;;4.03;;
1839;SDS011;920;48.944;9.148;2023-06-14T11:38:58;4.50;;;4.10;;
1839;SDS011;920;48.944;9.148;2023-06-14T11:41:26;6.50;;;4.20;;
1839;SDS011;920;48.944;9.148;2023-06-14T11:43:59;4.43;;;3.70;;
1839;SDS011;920;48.944;9.148;2023-06-14T11:46:26;7.63;;;4.47;;
1839;SDS011;920;48.944;9.148;2023-06-14T11:48:53;5.27;;;4.60;;
1839;SDS011;920;48.944;9.148;2023-06-14T11:51:20;4.23;;;3.83;;
1839;SDS011;920;48.944;9.148;2023-06-14T11:53:48;4.83;;;4.40;;
1839;SDS011;920;48.944;9.148;2023-06-14T11:56:15;4.40;;;4.00;;
1839;SDS011;920;48.944;9.148;2023-06-14T11:58:42;7.23;;;3.77;;
1839;SDS011;920;48.944;9.148;2023-06-14T12:01:09;7.17;;;4.13;;
1839;SDS011;920;48.944;9.148;2023-06-14T12:03:36;5.93;;;4.10;;
1839;SDS011;920;48.944;9.148;2023-06-14T12:06:06;3.97;;;3.67;;
1839;SDS011;920;48.944;9.148;2023-06-14T12:08:33;7.07;;;4.23;;
1839;SDS011;920;48.944;9.148;2023-06-14T12:11:05;5.43;;;4.40;;
1839;SDS011;920;48.944;9.148;2023-06-14T12:13:33;4.00;;;3.60;;
1839;SDS011;920;48.944;9.148;2023-06-14T12:16:01;5.20;;;4.73;;
1839;SDS011;920;48.944;9.148;2023-06-14T12:18:33;5.93;;;4.20;;
1839;SDS011;920;48.944;9.148;2023-06-14T12:21:00;4.23;;;3.93;;
1839;SDS011;920;48.944;9.148;2023-06-14T12:23:38;4.53;;;4.00;;
1839;SDS011;920;48.944;9.148;2023-06-14T12:26:07;4.87;;;4.00;;
1839;SDS011;920;48.944;9.148;2023-06-14T12:28:33;4.47;;;4.07;;
1839;SDS011;920;48.944;9.148;2023-06-14T12:31:00;7.40;;;4.03;;
1839;SDS011;920;48.944;9.148;2023-06-14T12:33:27;5.93;;;4.43;;
1839;SDS011;920;48.944;9.148;2023-06-14T12:35:54;5.37;;;4.20;;
1839;SDS011;920;48.944;9.148;2023-06-14T12:38:22;6.20;;;4.13;;
1839;SDS011;920;48.944;9.148;2023-06-14T12:40:49;4.10;;;3.70;;
1839;SDS011;920;48.944;9.148;2023-06-14T12:43:17;4.20;;;3.73;;
1839;SDS011;920;48.944;9.148;2023-06-14T12:45:43;4.77;;;4.00;;
1839;SDS011;920;48.944;9.148;2023-06-14T12:48:10;4.60;;;4.20;;
1839;SDS011;920;48.944;9.148;2023-06-14T12:50:36;5.20;;;4.70;;
1839;SDS011;920;48.944;9.148;2023-06-14T12:53:03;4.50;;;4.10;;
1839;SDS011;920;48.944;9.148;2023-06-14T12:55:30;6.87;;;4.20;;
1839;SDS011;920;48.944;9.148;2023-06-14T12:57:56;4.70;;;4.13;;
1839;SDS011;920;48.944;9.148;2023-06-14T13:00:24;5.40;;;4.37;;
1839;SDS011;920;48.944;9.148;2023-06-14T13:02:51;5.00;;;3.90;;
1839;SDS011;920;48.944;9.148;2023-06-14T13:05:18;5.73;;;4.60;;
1839;SDS011;920;48.944;9.148;2023-06-14T13:07:45;5.00;;;3.70;;
1839;SDS011;920;48.944;9.148;2023-06-14T13:10:12;4.30;;;3.90;;
1839;SDS011;920;48.944;9.148;2023-06-14T13:12:39;4.80;;;3.93;;
1839;SDS011;920;48.944;9.148;2023-06-14T13:15:06;4.67;;;4.10;;
1839;SDS011;920;48.944;9.148;2023-06-14T13:17:35;6.23;;;4.20;;
1839;SDS011;920;48.944;9.148;2023-06-14T13:20:03;5.33;;;4.40;;
1839;SDS011;920;48.944;9.148;2023-06-14T13:22:31;4.77;;;4.30;;
1839;SDS011;920;48.944;9.148;2023-06-14T13:24:58;5.03;;;3.90;;
1839;SDS011;920;48.944;9.148;2023-06-14T13:27:25;4.33;;;3.90;;
1839;SDS011;920;48.944;9.148;2023-06-14T13:29:52;4.17;;;3.80;;
1839;SDS011;920;48.944;9.148;2023-06-14T13:32:20;5.33;;;4.13;;
1839;SDS011;920;48.944;9.148;2023-06-14T13:34:48;4.87;;;4.47;;
1839;SDS011;920;48.944;9.148;2023-06-14T13:37:15;4.70;;;4.03;;
1839;SDS011;920;48.944;9.148;2023-06-14T13:39:42;4.50;;;4.10;;
1839;SDS011;920;48.944;9.148;2023-06-14T13:42:09;4.90;;;4.40;;
1839;SDS011;920;48.944;9.148;2023-06-14T13:44:35;5.60;;;4.00;;
1839;SDS011;920;48.944;9.148;2023-06-14T13:47:02;5.07;;;3.80;;
1839;SDS011;920;48.944;9.148;2023-06-14T13:49:29;4.57;;;4.17;;
1839;SDS011;920;48.944;9.148;2023-06-14T13:51:57;5.03;;;4.53;;
1839;SDS011;920;48.944;9.148;2023-06-14T13:54:24;4.90;;;4.50;;
1839;SDS011;920;48.944;9.148;2023-06-14T13:56:50;5.63;;;4.40;;
1839;SDS011;920;48.944;9.148;2023-06-14T13:59:17;6.20;;;4.60;;
1839;SDS011;920;48.944;9.148;2023-06-14T14:01:44;4.37;;;3.97;;
1839;SDS011;920;48.944;9.148;2023-06-14T14:04:10;4.50;;;4.10;;
1839;SDS011;920;48.944;9.148;2023-06-14T14:06:37;4.47;;;4.07;;
1839;SDS011;920;48.944;9.148;2023-06-14T14:09:05;4.20;;;3.77;;
1839;SDS011;920;48.944;9.148;2023-06-14T14:11:32;4.47;;;4.07;;
1839;SDS011;920;48.944;9.148;2023-06-14T14:13:59;6.00;;;4.47;;
1839;SDS011;920;48.944;9.148;2023-06-14T14:16:26;6.30;;;4.33;;
1839;SDS011;920;48.944;9.148;2023-06-14T14:18:53;6.30;;;4.40;;
1839;SDS011;920;48.944;9.148;2023-06-14T14:21:19;6.30;;;5.00;;
1839;SDS011;920;48.944;9.148;2023-06-14T14:23:46;4.70;;;4.20;;
1839;SDS011;920;48.944;9.148;2023-06-14T14:26:16;4.27;;;3.87;;
1839;SDS011;920;48.944;9.148;2023-06-14T14:28:42;4.43;;;3.87;;
1839;SDS011;920;48.944;9.148;2023-06-14T14:31:09;4.93;;;4.50;;
1839;SDS011;920;48.944;9.148;2023-06-14T14:33:36;6.00;;;4.07;;
1839;SDS011;920;48.944;9.148;2023-06-14T14:36:03;4.23;;;3.83;;
1839;SDS011;920;48.944;9.148;2023-06-14T14:38:31;4.40;;;4.00;;
1839;SDS011;920;48.944;9.148;2023-06-14T14:41:01;5.00;;;4.50;;
1839;SDS011;920;48.944;9.148;2023-06-14T14:43:29;4.57;;;4.17;;
1839;SDS011;920;48.944;9.148;2023-06-14T14:45:57;4.83;;;4.33;;
1839;SDS011;920;48.944;9.148;2023-06-14T14:48:23;5.60;;;4.10;;
1839;SDS011;920;48.944;9.148;2023-06-14T14:50:50;5.20;;;4.70;;
1839;SDS011;920;48.944;9.148;2023-06-14T14:53:17;4.90;;;4.20;;
1839;SDS011;920;48.944;9.148;2023-06-14T14:55:43;5.07;;;4.30;;
1839;SDS011;920;48.944;9.148;2023-06-14T14:58:11;4.60;;;4.20;;
1839;SDS011;920;48.944;9.148;2023-06-14T15:00:39;4.60;;;4.20;;
1839;SDS011;920;48.944;9.148;2023-06-14T15:03:06;4.93;;;3.87;;
1839;SDS011;920;48.944;9.148;2023-06-14T15:05:33;4.87;;;4.10;;
1839;SDS011;920;48.944;9.148;2023-06-14T15:08:00;4.33;;;3.93;;
1839;SDS011;920;48.944;9.148;2023-06-14T15:10:26;4.20;;;3.80;;
1839;SDS011;920;48.944;9.148;2023-06-14T15:12:53;4.73;;;4.33;;
1839;SDS011;920;48.944;9.148;2023-06-14T15:15:21;5.93;;;3.97;;
1839;SDS011;920;48.944;9.148;2023-06-14T15:17:49;4.90;;;4.17;;
1839;SDS011;920;48.944;9.148;2023-06-14T15:20:16;4.30;;;3.90;;
1839;SDS011;920;48.944;9.148;2023-06-14T15:22:42;6.40;;;4.60;;
1839;SDS011;920;48.944;9.148;2023-06-14T15:25:09;4.90;;;4.37;;
1839;SDS011;920;48.944;9.148;2023-06-14T15:27:36;6.67;;;4.43;;
1839;SDS011;920;48.944;9.148;2023-06-14T15:30:03;4.33;;;3.93;;
1839;SDS011;920;48.944;9.148;2023-06-14T15:32:30;5.00;;;4.30;;
1839;SDS011;920;48.944;9.148;2023-06-14T15:34:58;5.20;;;4.53;;
1839;SDS011;920;48.944;9.148;2023-06-14T15:37:24;4.87;;;4.03;;
1839;SDS011;920;48.944;9.148;2023-06-14T15:39:51;7.73;;;4.20;;